Time;durP1;ratioP1;P1;durP2;ratioP2;P2;SDS_P1;SDS_P2;PMS_P1;PMS_P2;Temp;Humidity;BMP_temperature;BMP_pressure;BME280_temperature;BME280_humidity;BME280_pressure;Samples;Min_cycle;Max_cycle;Signal;HPM_P1;HPM_P2
2022/07/16 00:03:22;;;;;;;6.10;1.97;;;;;;;;;;5097752;28;20223;-66
2022/07/16 00:05:50;;;;;;;3.57;2.23;;;;;;;;;;5097748;28;20207;-66
2022/07/16 00:08:18;;;;;;;2.13;1.33;;;;;;;;;;5097782;28;20242;-66
2022/07/16 00:10:48;;;;;;;2.23;1.70;;;;;;;;;;5097556;28;20205;-66
2022/07/16 00:13:16;;;;;;;2.63;1.87;;;;;;;;;;5097067;28;20264;-66
2022/07/16 00:15:44;;;;;;;2.00;1.57;;;;;;;;;;5097635;28;20215;-66
2022/07/16 00:20:57;;;;;;;2.20;1.50;;;;;;;;;;5097627;28;20228;-67
2022/07/16 00:23:25;;;;;;;2.20;1.53;;;;;;;;;;5097219;28;20280;-64
2022/07/16 00:25:55;;;;;;;2.20;1.30;;;;;;;;;;5097597;28;20237;-64
2022/07/16 00:28:22;;;;;;;1.93;1.50;;;;;;;;;;5100993;28;20253;-64
2022/07/16 00:30:50;;;;;;;1.97;1.60;;;;;;;;;;5101273;28;20198;-65
2022/07/16 00:33:18;;;;;;;1.60;1.37;;;;;;;;;;5101177;28;20736;-64
2022/07/16 00:35:46;;;;;;;2.70;1.60;;;;;;;;;;5101300;28;20197;-63
2022/07/16 00:38:14;;;;;;;4.17;1.80;;;;;;;;;;5101087;28;20208;-64
2022/07/16 00:40:42;;;;;;;1.90;1.43;;;;;;;;;;5100925;28;20261;-64
2022/07/16 00:43:13;;;;;;;2.10;1.63;;;;;;;;;;5100339;28;20221;-64
2022/07/16 00:45:41;;;;;;;1.80;1.20;;;;;;;;;;5100915;28;20239;-64
2022/07/16 00:48:09;;;;;;;2.83;1.40;;;;;;;;;;5101003;28;20556;-64
2022/07/16 00:50:37;;;;;;;1.93;1.70;;;;;;;;;;5101162;28;20235;-64
2022/07/16 00:53:08;;;;;;;2.77;1.73;;;;;;;;;;5100786;28;20222;-62
2022/07/16 00:55:36;;;;;;;1.60;1.30;;;;;;;;;;5100748;28;20224;-62
2022/07/16 00:58:04;;;;;;;2.10;1.30;;;;;;;;;;5100660;28;20248;-62
2022/07/16 01:00:33;;;;;;;1.97;1.40;;;;;;;;;;5100717;28;20792;-64
2022/07/16 01:03:04;;;;;;;1.90;1.30;;;;;;;;;;5100742;28;20282;-64
2022/07/16 01:05:33;;;;;;;3.53;1.50;;;;;;;;;;5100723;28;20209;-64
2022/07/16 01:08:01;;;;;;;7.60;1.50;;;;;;;;;;5100568;28;20733;-64
2022/07/16 01:10:29;;;;;;;3.90;1.50;;;;;;;;;;5100024;28;20199;-64
2022/07/16 01:12:59;;;;;;;3.70;1.60;;;;;;;;;;5099979;28;20240;-64
2022/07/16 01:15:27;;;;;;;6.33;1.73;;;;;;;;;;5100138;28;20566;-63
2022/07/16 01:17:56;;;;;;;2.87;1.80;;;;;;;;;;5100194;28;20343;-63
2022/07/16 01:20:24;;;;;;;1.80;1.50;;;;;;;;;;5100033;28;20227;-62
2022/07/16 01:22:53;;;;;;;3.20;1.60;;;;;;;;;;5100005;28;20244;-64
2022/07/16 01:25:23;;;;;;;4.57;1.40;;;;;;;;;;5086923;28;20235;-64
2022/07/16 01:27:51;;;;;;;1.53;1.20;;;;;;;;;;5097489;28;20230;-64
2022/07/16 01:30:19;;;;;;;1.10;1.00;;;;;;;;;;5095949;28;20247;-63
2022/07/16 01:32:47;;;;;;;3.77;1.30;;;;;;;;;;5099836;28;20592;-64
2022/07/16 01:35:15;;;;;;;1.40;1.20;;;;;;;;;;5100242;28;20202;-64
2022/07/16 01:37:43;;;;;;;1.40;1.30;;;;;;;;;;5099861;28;20243;-64
2022/07/16 01:40:11;;;;;;;5.73;1.60;;;;;;;;;;5099704;28;20746;-62
2022/07/16 01:42:43;;;;;;;1.60;1.00;;;;;;;;;;5099933;28;20201;-62
2022/07/16 01:45:11;;;;;;;3.13;1.47;;;;;;;;;;5099673;28;20229;-62
2022/07/16 01:47:39;;;;;;;7.00;1.80;;;;;;;;;;5087785;28;20204;-64
2022/07/16 01:50:07;;;;;;;1.63;1.10;;;;;;;;;;5083661;28;20206;-64
2022/07/16 01:52:35;;;;;;;5.30;1.40;;;;;;;;;;5094587;28;20213;-63
2022/07/16 01:55:03;;;;;;;1.43;1.10;;;;;;;;;;5089128;28;20773;-64
2022/07/16 01:57:31;;;;;;;1.87;1.20;;;;;;;;;;5092707;28;20202;-62
2022/07/16 02:00:01;;;;;;;3.17;1.20;;;;;;;;;;5102438;28;20273;-64
2022/07/16 02:02:29;;;;;;;3.60;1.10;;;;;;;;;;5096972;28;20239;-64
2022/07/16 02:04:57;;;;;;;2.43;1.67;;;;;;;;;;5089756;28;20242;-62
2022/07/16 02:07:25;;;;;;;3.77;1.17;;;;;;;;;;5088771;28;20290;-62
2022/07/16 02:09:53;;;;;;;2.27;1.20;;;;;;;;;;5093960;28;20241;-62
2022/07/16 02:12:21;;;;;;;4.90;1.33;;;;;;;;;;5087470;28;20215;-62
2022/07/16 02:14:49;;;;;;;1.13;1.03;;;;;;;;;;5090205;28;20597;-62
2022/07/16 02:17:18;;;;;;;2.10;1.37;;;;;;;;;;5089643;28;20261;-62
2022/07/16 02:19:46;;;;;;;3.37;1.20;;;;;;;;;;5094700;28;20577;-62
2022/07/16 02:22:14;;;;;;;2.10;1.00;;;;;;;;;;5082675;28;20686;-62
2022/07/16 02:24:42;;;;;;;2.03;1.23;;;;;;;;;;5097083;28;20255;-64
2022/07/16 02:27:10;;;;;;;2.20;1.30;;;;;;;;;;5090682;28;20722;-62
2022/07/16 02:29:38;;;;;;;3.77;1.40;;;;;;;;;;5098574;28;20235;-65
2022/07/16 02:32:06;;;;;;;4.43;1.20;;;;;;;;;;5099030;28;20211;-64
2022/07/16 02:34:36;;;;;;;2.90;1.27;;;;;;;;;;5098815;28;20269;-63
2022/07/16 02:37:04;;;;;;;1.10;0.87;;;;;;;;;;5097612;28;20216;-63
2022/07/16 02:39:32;;;;;;;2.20;1.30;;;;;;;;;;5088507;28;20234;-63
2022/07/16 02:42:00;;;;;;;4.50;1.33;;;;;;;;;;5098519;28;20279;-63
2022/07/16 02:44:28;;;;;;;2.07;1.40;;;;;;;;;;5090770;28;20254;-63
2022/07/16 02:46:56;;;;;;;2.10;1.30;;;;;;;;;;5089187;28;20231;-63
2022/07/16 02:49:24;;;;;;;8.20;1.23;;;;;;;;;;5098129;28;20252;-63
2022/07/16 02:51:53;;;;;;;2.20;1.20;;;;;;;;;;5102456;28;20233;-64
2022/07/16 02:54:21;;;;;;;2.30;0.93;;;;;;;;;;5090412;28;20258;-65
2022/07/16 02:56:49;;;;;;;3.33;1.27;;;;;;;;;;5093022;28;20244;-65
2022/07/16 02:59:17;;;;;;;3.40;1.33;;;;;;;;;;5093255;28;20728;-65
2022/07/16 03:01:45;;;;;;;2.23;1.33;;;;;;;;;;5097496;28;20317;-65
2022/07/16 03:04:13;;;;;;;3.67;1.40;;;;;;;;;;5092969;28;20224;-65
2022/07/16 03:06:41;;;;;;;1.30;0.90;;;;;;;;;;5098196;28;20224;-65
2022/07/16 03:09:11;;;;;;;1.17;1.07;;;;;;;;;;5098109;28;20214;-65
2022/07/16 03:11:39;;;;;;;0.93;0.93;;;;;;;;;;5095212;28;20676;-65
2022/07/16 03:14:07;;;;;;;1.90;1.07;;;;;;;;;;5093372;28;20279;-65
2022/07/16 03:16:35;;;;;;;2.47;1.20;;;;;;;;;;5095197;28;20216;-64
2022/07/16 03:19:03;;;;;;;2.43;1.27;;;;;;;;;;5098410;28;20277;-64
2022/07/16 03:21:31;;;;;;;1.37;1.20;;;;;;;;;;5097713;28;20260;-64
2022/07/16 03:23:59;;;;;;;4.37;1.23;;;;;;;;;;5089476;28;20305;-64
2022/07/16 03:26:28;;;;;;;1.50;1.27;;;;;;;;;;5097614;28;20207;-64
2022/07/16 03:28:56;;;;;;;2.83;1.10;;;;;;;;;;5079175;28;20239;-64
2022/07/16 03:31:24;;;;;;;2.43;1.23;;;;;;;;;;5092096;28;20317;-64
2022/07/16 03:33:52;;;;;;;1.43;1.13;;;;;;;;;;5097809;28;20256;-65
2022/07/16 03:36:20;;;;;;;2.50;1.23;;;;;;;;;;5086037;28;20207;-71
2022/07/16 03:39:02;;;;;;;2.27;1.20;;;;;;;;;;5090673;28;20208;-64
2022/07/16 03:41:32;;;;;;;3.53;1.20;;;;;;;;;;5090779;28;20810;-64
2022/07/16 03:44:00;;;;;;;1.63;1.20;;;;;;;;;;5080318;28;20730;-64
2022/07/16 03:46:28;;;;;;;2.33;1.10;;;;;;;;;;5082424;28;20211;-65
2022/07/16 03:48:56;;;;;;;2.30;1.33;;;;;;;;;;5094992;28;20208;-65
2022/07/16 03:51:25;;;;;;;3.17;1.40;;;;;;;;;;5097611;28;20256;-65
2022/07/16 03:53:53;;;;;;;2.57;1.17;;;;;;;;;;5080432;28;20600;-65
2022/07/16 03:56:21;;;;;;;1.87;1.17;;;;;;;;;;5084018;28;20247;-64
2022/07/16 03:58:51;;;;;;;2.67;1.30;;;;;;;;;;5094755;28;20218;-64
2022/07/16 04:01:20;;;;;;;3.37;1.60;;;;;;;;;;5090011;28;20256;-64
2022/07/16 04:03:47;;;;;;;2.53;1.10;;;;;;;;;;5092729;28;20235;-64
2022/07/16 04:06:15;;;;;;;3.07;1.20;;;;;;;;;;5081614;28;20213;-64
2022/07/16 04:08:43;;;;;;;1.80;1.47;;;;;;;;;;5087322;28;20666;-64
2022/07/16 04:11:11;;;;;;;1.37;1.10;;;;;;;;;;5093287;28;20251;-64
2022/07/16 04:13:40;;;;;;;2.20;1.23;;;;;;;;;;5095867;28;20229;-64
2022/07/16 04:16:10;;;;;;;2.17;1.60;;;;;;;;;;5096526;28;20265;-64
2022/07/16 04:18:38;;;;;;;2.03;1.00;;;;;;;;;;5098322;28;20235;-64
2022/07/16 04:21:06;;;;;;;1.50;1.20;;;;;;;;;;5096862;28;20231;-64
2022/07/16 04:23:34;;;;;;;1.60;1.07;;;;;;;;;;5098121;28;20246;-64
2022/07/16 04:26:02;;;;;;;3.90;1.23;;;;;;;;;;5093980;28;20270;-64
2022/07/16 04:28:30;;;;;;;0.97;0.97;;;;;;;;;;5089212;28;20252;-64
2022/07/16 04:30:58;;;;;;;4.67;1.37;;;;;;;;;;5098289;28;20241;-64
2022/07/16 04:33:28;;;;;;;3.70;1.23;;;;;;;;;;5094490;28;20221;-64
2022/07/16 04:35:56;;;;;;;1.17;1.00;;;;;;;;;;5093793;28;20681;-64
2022/07/16 04:38:24;;;;;;;2.90;1.20;;;;;;;;;;5099611;28;20241;-64
2022/07/16 04:40:52;;;;;;;3.00;1.37;;;;;;;;;;5093199;28;20214;-64
2022/07/16 04:43:20;;;;;;;2.07;1.20;;;;;;;;;;5094003;28;20268;-64
2022/07/16 04:45:48;;;;;;;3.03;1.50;;;;;;;;;;5099807;28;20230;-64
2022/07/16 04:48:15;;;;;;;2.30;1.10;;;;;;;;;;5091755;28;20245;-64
2022/07/16 04:50:45;;;;;;;1.23;1.20;;;;;;;;;;5091621;28;20216;-64
2022/07/16 04:53:13;;;;;;;4.27;1.30;;;;;;;;;;5090969;28;20736;-66
2022/07/16 04:55:41;;;;;;;4.43;1.20;;;;;;;;;;5086489;28;20202;-64
2022/07/16 04:58:09;;;;;;;1.60;0.97;;;;;;;;;;5089159;28;20652;-64
2022/07/16 05:00:37;;;;;;;2.40;1.27;;;;;;;;;;5095187;28;20239;-64
2022/07/16 05:03:06;;;;;;;2.70;1.13;;;;;;;;;;5087653;28;20258;-64
2022/07/16 05:05:35;;;;;;;4.73;1.20;;;;;;;;;;5098681;28;20206;-64
2022/07/16 05:08:06;;;;;;;1.93;1.00;;;;;;;;;;5090668;28;20243;-64
2022/07/16 05:10:34;;;;;;;1.63;1.00;;;;;;;;;;5090914;28;20230;-64
2022/07/16 05:13:03;;;;;;;1.47;1.10;;;;;;;;;;5086429;28;20230;-65
2022/07/16 05:15:32;;;;;;;4.07;1.30;;;;;;;;;;5090139;28;20210;-66
2022/07/16 05:18:00;;;;;;;2.90;1.43;;;;;;;;;;5093759;28;20228;-66
2022/07/16 05:20:28;;;;;;;1.47;1.10;;;;;;;;;;5086580;28;20680;-65
2022/07/16 05:22:56;;;;;;;3.23;1.30;;;;;;;;;;5095706;28;20294;-65
2022/07/16 05:25:26;;;;;;;2.87;1.40;;;;;;;;;;5099968;28;20235;-65
2022/07/16 05:27:54;;;;;;;6.57;1.03;;;;;;;;;;5091917;28;20203;-65
2022/07/16 05:30:22;;;;;;;1.30;1.20;;;;;;;;;;5099918;28;20209;-65
2022/07/16 05:32:50;;;;;;;4.73;1.20;;;;;;;;;;5092731;28;20641;-65
2022/07/16 05:35:19;;;;;;;5.50;1.40;;;;;;;;;;5113509;28;20210;-65
2022/07/16 05:37:47;;;;;;;1.80;1.10;;;;;;;;;;5097731;28;20203;-66
2022/07/16 05:40:15;;;;;;;2.00;1.30;;;;;;;;;;5099056;28;20238;-65
2022/07/16 05:42:44;;;;;;;2.50;1.10;;;;;;;;;;5092171;28;20734;-65
2022/07/16 05:45:16;;;;;;;3.00;1.30;;;;;;;;;;5090517;28;20209;-65
2022/07/16 05:47:44;;;;;;;1.80;1.17;;;;;;;;;;5086227;28;20749;-65
2022/07/16 05:50:12;;;;;;;4.00;1.40;;;;;;;;;;5094053;28;20289;-65
2022/07/16 05:52:40;;;;;;;2.57;1.13;;;;;;;;;;5097562;28;20229;-65
2022/07/16 05:55:08;;;;;;;1.07;1.00;;;;;;;;;;5092417;28;20338;-65
2022/07/16 05:57:36;;;;;;;1.33;1.20;;;;;;;;;;5093186;28;20260;-65
2022/07/16 06:00:08;;;;;;;2.30;1.30;;;;;;;;;;5093456;28;20250;-65
2022/07/16 06:02:36;;;;;;;1.07;0.90;;;;;;;;;;5086770;28;20662;-65
2022/07/16 06:05:05;;;;;;;2.23;1.00;;;;;;;;;;5098853;28;20777;-65
2022/07/16 06:07:33;;;;;;;1.77;1.23;;;;;;;;;;5088247;28;20669;-65
2022/07/16 06:10:01;;;;;;;2.10;1.13;;;;;;;;;;5095282;28;20238;-65
2022/07/16 06:12:29;;;;;;;2.47;1.20;;;;;;;;;;5086211;28;20205;-65
2022/07/16 06:14:58;;;;;;;2.50;1.20;;;;;;;;;;5095085;28;20254;-65
2022/07/16 06:17:27;;;;;;;1.30;1.20;;;;;;;;;;5098859;28;20242;-65
2022/07/16 06:19:55;;;;;;;3.50;1.17;;;;;;;;;;5083709;28;20719;-65
2022/07/16 06:22:24;;;;;;;4.57;1.63;;;;;;;;;;5089728;28;20592;-65
2022/07/16 06:24:52;;;;;;;2.10;1.40;;;;;;;;;;5094653;28;20226;-65
2022/07/16 06:27:20;;;;;;;1.40;1.00;;;;;;;;;;5091387;28;20198;-65
2022/07/16 06:29:48;;;;;;;1.97;1.20;;;;;;;;;;5090263;28;20247;-65
2022/07/16 06:32:15;;;;;;;6.60;1.10;;;;;;;;;;5086889;28;20215;-65
2022/07/16 06:34:45;;;;;;;1.73;0.87;;;;;;;;;;5093006;28;20565;-64
2022/07/16 06:37:13;;;;;;;3.07;1.40;;;;;;;;;;5087401;28;20202;-64
2022/07/16 06:39:41;;;;;;;2.73;1.40;;;;;;;;;;5091030;28;20218;-64
2022/07/16 06:42:09;;;;;;;2.10;1.10;;;;;;;;;;5095435;28;20262;-64
2022/07/16 06:44:38;;;;;;;3.23;1.50;;;;;;;;;;5098296;28;20235;-64
2022/07/16 06:47:07;;;;;;;3.90;1.30;;;;;;;;;;5085924;28;20236;-64
2022/07/16 06:49:35;;;;;;;2.00;1.27;;;;;;;;;;5094215;28;20233;-63
2022/07/16 06:52:04;;;;;;;1.20;1.03;;;;;;;;;;5091457;28;20233;-64
2022/07/16 06:54:32;;;;;;;1.23;1.00;;;;;;;;;;5095838;28;20224;-64
2022/07/16 06:57:00;;;;;;;1.43;1.17;;;;;;;;;;5082829;28;20235;-64
2022/07/16 06:59:28;;;;;;;6.57;1.30;;;;;;;;;;5087019;28;20238;-64
2022/07/16 07:01:56;;;;;;;2.40;1.30;;;;;;;;;;5098985;28;20201;-64
2022/07/16 07:04:24;;;;;;;2.33;1.60;;;;;;;;;;5088783;28;20259;-64
2022/07/16 07:06:52;;;;;;;1.53;1.27;;;;;;;;;;5085016;28;20214;-64
2022/07/16 07:09:22;;;;;;;2.77;1.53;;;;;;;;;;5082485;28;20609;-64
2022/07/16 07:11:50;;;;;;;2.00;1.40;;;;;;;;;;5092804;28;20209;-64
2022/07/16 07:14:18;;;;;;;1.77;1.43;;;;;;;;;;5080565;28;20697;-64
2022/07/16 07:16:46;;;;;;;5.37;1.60;;;;;;;;;;5094330;28;20228;-64
2022/07/16 07:19:14;;;;;;;1.30;1.20;;;;;;;;;;5087985;28;20206;-63
2022/07/16 07:21:42;;;;;;;2.10;1.50;;;;;;;;;;5086199;28;20207;-64
2022/07/16 07:24:10;;;;;;;4.80;1.40;;;;;;;;;;5097307;28;20267;-63
2022/07/16 07:26:59;;;;;;;1.83;1.43;;;;;;;;;;5086798;28;20689;-63
2022/07/16 07:29:30;;;;;;;1.13;1.03;;;;;;;;;;5107694;28;20232;-63
2022/07/16 07:31:59;;;;;;;1.50;1.40;;;;;;;;;;5096576;28;20205;-63
2022/07/16 07:34:27;;;;;;;3.73;1.67;;;;;;;;;;5096481;28;20220;-63
2022/07/16 07:36:55;;;;;;;2.10;1.40;;;;;;;;;;5095579;28;20246;-63
2022/07/16 07:39:23;;;;;;;3.37;1.37;;;;;;;;;;5094408;28;20254;-63
2022/07/16 07:41:51;;;;;;;3.40;1.50;;;;;;;;;;5097325;28;20257;-63
2022/07/16 07:44:20;;;;;;;1.57;1.47;;;;;;;;;;5096223;28;20279;-63
2022/07/16 07:46:48;;;;;;;4.43;1.60;;;;;;;;;;5097446;28;20287;-63
2022/07/16 07:49:16;;;;;;;2.20;1.67;;;;;;;;;;5093096;28;20210;-63
2022/07/16 07:51:44;;;;;;;3.50;1.53;;;;;;;;;;5083911;28;20207;-63
2022/07/16 07:54:12;;;;;;;1.63;1.43;;;;;;;;;;5087021;28;20256;-64
2022/07/16 07:56:40;;;;;;;1.97;1.60;;;;;;;;;;5095106;28;20207;-64
2022/07/16 07:59:08;;;;;;;2.80;1.73;;;;;;;;;;5097064;28;20237;-64
2022/07/16 08:01:38;;;;;;;1.90;1.40;;;;;;;;;;5094236;28;20248;-65
2022/07/16 08:04:06;;;;;;;2.10;2.00;;;;;;;;;;5095513;28;20229;-64
2022/07/16 08:06:34;;;;;;;1.67;1.40;;;;;;;;;;5096397;28;20667;-65
2022/07/16 08:09:02;;;;;;;1.40;1.30;;;;;;;;;;5091500;28;20621;-64
2022/07/16 08:11:33;;;;;;;4.07;1.83;;;;;;;;;;5097292;28;20218;-64
2022/07/16 08:14:01;;;;;;;3.40;1.93;;;;;;;;;;5081121;28;20226;-64
2022/07/16 08:16:50;;;;;;;2.77;1.73;;;;;;;;;;5093008;28;20572;-65
2022/07/16 08:19:18;;;;;;;1.93;1.50;;;;;;;;;;5087454;28;20208;-65
2022/07/16 08:21:47;;;;;;;2.90;1.87;;;;;;;;;;5089431;28;20218;-66
2022/07/16 08:27:02;;;;;;;1.97;1.57;;;;;;;;;;5089444;28;20248;-66
2022/07/16 08:29:31;;;;;;;2.67;1.40;;;;;;;;;;5096989;28;20212;-63
2022/07/16 08:32:00;;;;;;;2.03;1.60;;;;;;;;;;5096895;28;20213;-63
2022/07/16 08:34:28;;;;;;;4.97;1.53;;;;;;;;;;5091672;28;20229;-66
2022/07/16 08:36:56;;;;;;;3.40;1.90;;;;;;;;;;5081647;28;20202;-65
2022/07/16 08:39:24;;;;;;;2.37;1.50;;;;;;;;;;5083374;28;20649;-63
2022/07/16 08:41:54;;;;;;;3.27;1.83;;;;;;;;;;5096854;28;20221;-64
2022/07/16 08:44:22;;;;;;;2.13;1.57;;;;;;;;;;5096510;28;20332;-66
2022/07/16 08:46:51;;;;;;;2.90;1.87;;;;;;;;;;5087898;28;20199;-66
2022/07/16 08:49:21;;;;;;;2.70;1.80;;;;;;;;;;5100255;28;20264;-66
2022/07/16 08:51:49;;;;;;;5.03;3.27;;;;;;;;;;5094603;28;20209;-66
2022/07/16 08:54:20;;;;;;;3.00;2.00;;;;;;;;;;5081738;28;20287;-66
2022/07/16 08:56:49;;;;;;;4.60;1.90;;;;;;;;;;5099373;28;20221;-66
2022/07/16 08:59:18;;;;;;;2.17;1.90;;;;;;;;;;5087840;28;20202;-66
2022/07/16 09:01:46;;;;;;;2.07;1.50;;;;;;;;;;5081575;28;20220;-66
2022/07/16 09:04:14;;;;;;;3.17;1.93;;;;;;;;;;5094805;28;20247;-66
2022/07/16 09:06:44;;;;;;;1.90;1.70;;;;;;;;;;5081447;28;20599;-66
2022/07/16 09:09:12;;;;;;;3.33;1.47;;;;;;;;;;5083583;28;20207;-64
2022/07/16 09:11:41;;;;;;;3.53;1.67;;;;;;;;;;5099640;28;20211;-64
2022/07/16 09:14:10;;;;;;;2.43;2.23;;;;;;;;;;5097477;28;20219;-65
2022/07/16 09:16:39;;;;;;;2.87;1.50;;;;;;;;;;5093325;28;20258;-65
2022/07/16 09:19:09;;;;;;;2.40;1.77;;;;;;;;;;5082042;28;20253;-64
2022/07/16 09:21:37;;;;;;;6.80;1.90;;;;;;;;;;5092197;28;20708;-64
2022/07/16 09:24:07;;;;;;;2.73;1.70;;;;;;;;;;5091821;28;20604;-64
2022/07/16 09:26:35;;;;;;;6.77;2.40;;;;;;;;;;5089491;28;20238;-64
2022/07/16 09:29:04;;;;;;;1.80;1.70;;;;;;;;;;5094606;28;20906;-64
2022/07/16 09:31:38;;;;;;;2.13;1.80;;;;;;;;;;5090245;28;20217;-64
2022/07/16 09:34:08;;;;;;;3.00;1.77;;;;;;;;;;5084215;28;20227;-64
2022/07/16 09:36:37;;;;;;;3.43;1.60;;;;;;;;;;5100029;28;20602;-64
2022/07/16 09:39:08;;;;;;;2.17;1.80;;;;;;;;;;5086486;28;20209;-64
2022/07/16 09:41:43;;;;;;;2.77;1.33;;;;;;;;;;5087351;28;20316;-64
2022/07/16 09:44:15;;;;;;;3.80;2.10;;;;;;;;;;5080848;28;20222;-64
2022/07/16 09:47:02;;;;;;;3.70;2.13;;;;;;;;;;5083721;28;20285;-65
2022/07/16 09:49:31;;;;;;;4.50;1.80;;;;;;;;;;5088763;28;20224;-65
2022/07/16 09:51:59;;;;;;;2.33;1.80;;;;;;;;;;5092711;28;20209;-64
2022/07/16 09:54:32;;;;;;;3.70;2.00;;;;;;;;;;5086014;28;20214;-64
2022/07/16 09:57:07;;;;;;;2.93;1.43;;;;;;;;;;5092745;28;20768;-65
2022/07/16 09:59:36;;;;;;;3.07;1.70;;;;;;;;;;5095151;28;20223;-65
2022/07/16 10:02:24;;;;;;;3.47;2.53;;;;;;;;;;5093095;28;20215;-64
2022/07/16 10:04:53;;;;;;;5.53;1.80;;;;;;;;;;5095642;28;20314;-64
2022/07/16 10:07:27;;;;;;;2.80;1.73;;;;;;;;;;5093066;28;20214;-64
2022/07/16 10:09:57;;;;;;;1.97;1.77;;;;;;;;;;5093363;28;20248;-64
2022/07/16 10:12:26;;;;;;;2.43;1.90;;;;;;;;;;5097502;28;20212;-64
2022/07/16 10:14:55;;;;;;;2.73;1.83;;;;;;;;;;5090437;28;20597;-65
2022/07/16 10:17:31;;;;;;;2.60;1.80;;;;;;;;;;5097365;28;20680;-65
2022/07/16 10:20:00;;;;;;;4.77;1.93;;;;;;;;;;5095182;28;20205;-64
2022/07/16 10:22:32;;;;;;;7.10;2.10;;;;;;;;;;5097117;28;20242;-64
2022/07/16 10:25:10;;;;;;;3.07;2.00;;;;;;;;;;5093765;28;20257;-64
2022/07/16 10:27:38;;;;;;;1.93;1.83;;;;;;;;;;5085859;28;20231;-65
2022/07/16 10:30:18;;;;;;;6.10;2.07;;;;;;;;;;5098709;28;20196;-65
2022/07/16 10:33:06;;;;;;;6.10;1.58;;;;;;;;;;5095626;28;20232;-63
2022/07/16 10:35:37;;;;;;;2.63;1.88;;;;;;;;;;5097244;28;20208;-64
2022/07/16 10:38:06;;;;;;;6.85;2.20;;;;;;;;;;5093952;28;20213;-63
2022/07/16 10:41:09;;;;;;;2.65;2.30;;;;;;;;;;5091663;28;20639;-63
2022/07/16 10:43:37;;;;;;;5.80;1.88;;;;;;;;;;5090387;28;20228;-63
2022/07/16 10:46:06;;;;;;;2.42;1.63;;;;;;;;;;5098973;28;20227;-63
2022/07/16 10:48:49;;;;;;;2.90;1.92;;;;;;;;;;5091261;28;20207;-65
2022/07/16 10:51:18;;;;;;;5.25;1.75;;;;;;;;;;5096293;28;20676;-63
2022/07/16 10:54:14;;;;;;;4.70;1.85;;;;;;;;;;5092288;28;20282;-63
2022/07/16 10:56:46;;;;;;;2.78;1.55;;;;;;;;;;5083082;28;20268;-63
2022/07/16 10:59:16;;;;;;;2.35;1.80;;;;;;;;;;5097711;28;20295;-62
2022/07/16 11:01:45;;;;;;;3.30;1.90;;;;;;;;;;5086968;28;20717;-62
2022/07/16 11:04:14;;;;;;;2.05;1.90;;;;;;;;;;5090511;28;20220;-62
2022/07/16 11:06:48;;;;;;;2.85;1.88;;;;;;;;;;5093064;28;20227;-62
2022/07/16 11:09:23;;;;;;;4.40;1.77;;;;;;;;;;5096905;28;20208;-63
2022/07/16 11:11:54;;;;;;;2.58;1.60;;;;;;;;;;5086795;28;20284;-62
2022/07/16 11:14:28;;;;;;;1.83;1.73;;;;;;;;;;5093089;28;20588;-61
2022/07/16 11:16:57;;;;;;;3.55;1.98;;;;;;;;;;5090858;28;20575;-62
2022/07/16 11:19:25;;;;;;;2.85;1.92;;;;;;;;;;5083675;28;20246;-61
2022/07/16 11:21:57;;;;;;;2.03;1.80;;;;;;;;;;5088910;28;20197;-61
2022/07/16 11:24:25;;;;;;;1.92;1.58;;;;;;;;;;5094862;28;20221;-61
2022/07/16 11:26:54;;;;;;;2.08;1.70;;;;;;;;;;5081599;28;20327;-61
2022/07/16 11:29:24;;;;;;;3.05;1.50;;;;;;;;;;5084944;28;20232;-61
2022/07/16 11:31:52;;;;;;;2.55;1.80;;;;;;;;;;5096795;28;20295;-61
2022/07/16 11:34:24;;;;;;;5.78;2.08;;;;;;;;;;5082986;28;20235;-62
2022/07/16 11:36:53;;;;;;;3.08;1.60;;;;;;;;;;5088262;28;20655;-62
2022/07/16 11:39:22;;;;;;;3.40;1.75;;;;;;;;;;5079911;28;20199;-62
2022/07/16 11:41:50;;;;;;;2.83;2.05;;;;;;;;;;5079653;28;20612;-62
2022/07/16 11:44:21;;;;;;;1.98;1.80;;;;;;;;;;5091018;28;20225;-61
2022/07/16 11:46:50;;;;;;;3.03;1.88;;;;;;;;;;5085043;28;20223;-63
2022/07/16 11:49:22;;;;;;;3.28;2.05;;;;;;;;;;5096782;28;20204;-62
2022/07/16 11:51:51;;;;;;;5.45;2.10;;;;;;;;;;5078729;28;20226;-61
2022/07/16 11:54:19;;;;;;;1.65;1.55;;;;;;;;;;5084074;28;20627;-61
2022/07/16 11:56:47;;;;;;;3.58;1.80;;;;;;;;;;5090966;28;20206;-63
2022/07/16 11:59:23;;;;;;;5.00;2.00;;;;;;;;;;5086058;28;20226;-63
2022/07/16 12:02:02;;;;;;;2.60;2.00;;;;;;;;;;5090772;28;20693;-62
2022/07/16 12:04:37;;;;;;;2.33;2.00;;;;;;;;;;5096459;28;20238;-63
2022/07/16 12:07:06;;;;;;;2.45;1.63;;;;;;;;;;5096365;28;20245;-63
2022/07/16 12:09:35;;;;;;;3.83;2.03;;;;;;;;;;5085214;28;20242;-63
2022/07/16 12:12:05;;;;;;;2.95;1.85;;;;;;;;;;5096856;28;20247;-63
2022/07/16 12:14:45;;;;;;;5.07;2.05;;;;;;;;;;5095270;28;20712;-63
2022/07/16 12:17:34;;;;;;;6.47;1.85;;;;;;;;;;5080268;28;20611;-62
2022/07/16 12:20:03;;;;;;;2.78;1.55;;;;;;;;;;5091296;28;20206;-62
2022/07/16 12:22:47;;;;;;;4.18;2.00;;;;;;;;;;5087664;28;20235;-63
2022/07/16 12:25:34;;;;;;;2.88;1.70;;;;;;;;;;5089849;28;20207;-63
2022/07/16 12:28:04;;;;;;;1.88;1.70;;;;;;;;;;5087280;28;20204;-62
2022/07/16 12:30:34;;;;;;;1.58;1.48;;;;;;;;;;5094130;28;20205;-62
2022/07/16 12:33:04;;;;;;;3.30;1.48;;;;;;;;;;5089346;28;20224;-63
2022/07/16 12:35:47;;;;;;;2.33;1.48;;;;;;;;;;5091761;28;20199;-63
2022/07/16 12:38:34;;;;;;;3.13;1.65;;;;;;;;;;5095178;28;20206;-63
2022/07/16 12:41:02;;;;;;;2.30;2.10;;;;;;;;;;5095721;28;20233;-62
2022/07/16 12:43:30;;;;;;;4.28;1.73;;;;;;;;;;5098626;28;20268;-63
2022/07/16 12:46:01;;;;;;;2.33;1.73;;;;;;;;;;5096160;28;20223;-63
2022/07/16 12:48:29;;;;;;;3.15;1.80;;;;;;;;;;5087254;28;20664;-63
2022/07/16 12:50:58;;;;;;;3.63;1.80;;;;;;;;;;5094556;28;20289;-63
2022/07/16 12:53:26;;;;;;;4.72;1.70;;;;;;;;;;5100502;28;20278;-63
2022/07/16 12:58:49;;;;;;;5.57;1.55;;;;;;;;;;5097314;28;20239;-63
2022/07/16 13:01:22;;;;;;;3.08;1.50;;;;;;;;;;5099201;28;20624;-63
2022/07/16 13:03:51;;;;;;;2.15;1.70;;;;;;;;;;5097117;28;20254;-63
2022/07/16 13:06:20;;;;;;;4.30;1.75;;;;;;;;;;5087784;28;20223;-63
2022/07/16 13:08:49;;;;;;;2.08;1.45;;;;;;;;;;5088333;28;20208;-62
2022/07/16 13:11:20;;;;;;;4.03;1.50;;;;;;;;;;5092018;28;20211;-63
2022/07/16 13:13:49;;;;;;;2.95;1.50;;;;;;;;;;5094774;28;20310;-63
2022/07/16 13:16:19;;;;;;;1.40;1.30;;;;;;;;;;5092431;28;20258;-63
2022/07/16 13:18:50;;;;;;;2.20;1.70;;;;;;;;;;5091453;28;20205;-62
2022/07/16 13:21:18;;;;;;;1.80;1.70;;;;;;;;;;5101040;28;20216;-62
2022/07/16 13:23:46;;;;;;;2.35;1.55;;;;;;;;;;5095724;28;20248;-63
2022/07/16 13:26:14;;;;;;;1.52;1.40;;;;;;;;;;5095547;28;20256;-63
2022/07/16 13:28:42;;;;;;;3.40;2.00;;;;;;;;;;5098931;28;20205;-62
2022/07/16 13:31:11;;;;;;;3.25;1.90;;;;;;;;;;5090786;28;20202;-60
2022/07/16 13:33:38;;;;;;;3.28;1.63;;;;;;;;;;5088135;28;20253;-63
2022/07/16 13:36:09;;;;;;;1.88;1.48;;;;;;;;;;5094868;28;20240;-63
2022/07/16 13:38:38;;;;;;;2.63;1.67;;;;;;;;;;5099873;28;20236;-63
2022/07/16 13:41:06;;;;;;;1.52;1.40;;;;;;;;;;5087316;28;20244;-63
2022/07/16 13:43:35;;;;;;;5.50;1.73;;;;;;;;;;5097144;28;20252;-63
2022/07/16 13:46:04;;;;;;;6.43;1.60;;;;;;;;;;5086734;28;20565;-63
2022/07/16 13:48:33;;;;;;;1.52;1.42;;;;;;;;;;5100752;28;20201;-63
2022/07/16 13:51:01;;;;;;;1.85;1.50;;;;;;;;;;5087059;28;20240;-63
2022/07/16 13:53:49;;;;;;;4.28;1.38;;;;;;;;;;5079877;28;20225;-61
2022/07/16 13:56:17;;;;;;;5.38;1.80;;;;;;;;;;5086825;28;20205;-60
2022/07/16 13:58:45;;;;;;;3.78;1.65;;;;;;;;;;5092325;28;20240;-62
2022/07/16 14:01:14;;;;;;;6.07;4.25;;;;;;;;;;5091791;28;20197;-62
2022/07/16 14:03:42;;;;;;;6.70;1.98;;;;;;;;;;5087283;28;20256;-63
2022/07/16 14:06:10;;;;;;;3.33;2.70;;;;;;;;;;5085147;28;20201;-61
2022/07/16 14:08:38;;;;;;;4.00;1.67;;;;;;;;;;5087392;28;20210;-60
2022/07/16 14:11:08;;;;;;;1.60;1.50;;;;;;;;;;5095131;28;20233;-63
2022/07/16 14:13:36;;;;;;;5.18;1.65;;;;;;;;;;5089493;28;20240;-63
2022/07/16 14:16:05;;;;;;;1.48;1.38;;;;;;;;;;5079230;28;20576;-62
2022/07/16 14:18:33;;;;;;;1.70;1.60;;;;;;;;;;5091107;28;20197;-63
2022/07/16 14:21:01;;;;;;;1.38;1.27;;;;;;;;;;5091182;28;20213;-62
2022/07/16 14:23:29;;;;;;;1.80;1.60;;;;;;;;;;5091889;28;20279;-62
2022/07/16 14:25:57;;;;;;;7.60;1.80;;;;;;;;;;5096614;28;20201;-63
2022/07/16 14:28:27;;;;;;;1.38;1.23;;;;;;;;;;5078193;28;20291;-63
2022/07/16 14:30:55;;;;;;;2.13;1.70;;;;;;;;;;5094679;28;20201;-63
2022/07/16 14:33:23;;;;;;;2.35;1.50;;;;;;;;;;5096095;28;20686;-63
2022/07/16 14:35:51;;;;;;;2.47;1.08;;;;;;;;;;5097272;28;20221;-62
2022/07/16 14:38:19;;;;;;;1.65;1.55;;;;;;;;;;5081638;28;20237;-63
2022/07/16 14:40:47;;;;;;;2.10;1.77;;;;;;;;;;5088930;28;20237;-62
2022/07/16 14:43:23;;;;;;;1.40;1.30;;;;;;;;;;5091918;28;20334;-62
2022/07/16 14:45:53;;;;;;;3.30;1.50;;;;;;;;;;5092525;28;20206;-60
2022/07/16 14:48:21;;;;;;;3.50;1.60;;;;;;;;;;5096551;28;20278;-60
2022/07/16 14:50:49;;;;;;;4.80;1.70;;;;;;;;;;5091368;28;20257;-61
2022/07/16 14:53:17;;;;;;;2.40;1.63;;;;;;;;;;5093723;28;20281;-62
2022/07/16 14:55:45;;;;;;;3.35;1.48;;;;;;;;;;5097720;28;20201;-62
2022/07/16 14:58:13;;;;;;;5.40;1.70;;;;;;;;;;5095324;28;20193;-62
2022/07/16 15:00:43;;;;;;;3.15;1.52;;;;;;;;;;5095965;28;20201;-62
2022/07/16 15:03:13;;;;;;;2.83;1.30;;;;;;;;;;5092915;28;20252;-60
2022/07/16 15:05:41;;;;;;;4.10;1.40;;;;;;;;;;5094358;28;20213;-61
2022/07/16 15:08:09;;;;;;;3.75;1.30;;;;;;;;;;5095918;28;20304;-61